createdAt,value
2022-10-29T00:00:10.905Z,100398.38
2022-10-29T00:02:38.952Z,100398.38
2022-10-29T00:05:09.896Z,100394.03
2022-10-29T00:07:49.679Z,100398.31
2022-10-29T00:10:17.784Z,100409.13
2022-10-29T00:12:45.381Z,100395.78
2022-10-29T00:15:12.973Z,100395.88
2022-10-29T00:17:41.084Z,100395.12
2022-10-29T00:22:41.990Z,100387.84
2022-10-29T00:25:09.664Z,100386.91
2022-10-29T00:27:37.224Z,100391.22
2022-10-29T00:30:05.486Z,100391.22
2022-10-29T00:32:33.101Z,100381.69
2022-10-29T00:35:00.705Z,100386.16
2022-10-29T00:37:28.818Z,100382.59
2022-10-29T00:39:56.414Z,100379.91
2022-10-29T00:42:36.142Z,100385.13
2022-10-29T00:45:04.249Z,100390.53
2022-10-29T00:47:36.990Z,100382.06
2022-10-29T00:50:25.493Z,100387.28
2022-10-29T00:52:55.937Z,100379.44
2022-10-29T00:55:27.309Z,100382.13
2022-10-29T00:57:58.874Z,100379.44
2022-10-29T01:00:27.394Z,100379.44
2022-10-29T01:02:55.357Z,100379.44
2022-10-29T01:05:26.833Z,100377.28
2022-10-29T01:10:39.610Z,100374.97
2022-10-29T01:13:07.632Z,100369.72
2022-10-29T01:15:53.416Z,100368.59
2022-10-29T01:18:35.515Z,100372.16
2022-10-29T01:21:21.535Z,100364.12
2022-10-29T01:23:52.359Z,100357.19
2022-10-29T01:26:29.388Z,100365.78
2022-10-29T01:29:15.908Z,100357.66
2022-10-29T01:31:52.759Z,100362.06
2022-10-29T01:34:53.236Z,100363.00
2022-10-29T01:37:28.101Z,100365.03
2022-10-29T01:40:15.829Z,100358.03
2022-10-29T01:42:47.519Z,100357.66
2022-10-29T01:45:33.166Z,100354.41
2022-10-29T01:48:13.717Z,100357.38
2022-10-29T01:50:45.547Z,100356.53
2022-10-29T01:53:16.982Z,100350.38
2022-10-29T01:56:00.005Z,100345.16
2022-10-29T01:58:39.721Z,100336.84
2022-10-29T02:01:10.820Z,100336.72
2022-10-29T02:03:52.762Z,100342.06
2022-10-29T02:06:39.043Z,100333.28
2022-10-29T02:09:29.645Z,100329.75
2022-10-29T02:12:06.334Z,100332.91
2022-10-29T02:15:12.909Z,100327.28
2022-10-29T02:17:43.474Z,100321.87
2022-10-29T02:20:15.092Z,100326.19
2022-10-29T02:22:42.724Z,100311.87
2022-10-29T02:25:10.657Z,100311.97
2022-10-29T02:27:39.553Z,100304.56
2022-10-29T02:30:10.341Z,100310.19
2022-10-29T02:32:38.409Z,100296.56
2022-10-29T02:35:06.273Z,100293.19
2022-10-29T02:37:34.028Z,100290.47
2022-10-29T02:40:05.369Z,100285.25
2022-10-29T02:42:32.948Z,100284.31
2022-10-29T02:45:00.511Z,100274.78
2022-10-29T02:47:30.254Z,100263.66
2022-10-29T02:50:12.459Z,100267.47
2022-10-29T02:52:40.479Z,100272.16
2022-10-29T02:55:08.261Z,100270.00
2022-10-29T02:57:35.852Z,100266.63
2022-10-29T03:00:16.348Z,100264.78
2022-10-29T03:02:44.128Z,100265.34
2022-10-29T03:05:12.306Z,100267.84
2022-10-29T03:07:52.287Z,100265.06
2022-10-29T03:10:20.322Z,100258.88
2022-10-29T03:12:47.965Z,100268.22
2022-10-29T03:15:15.610Z,100265.31
2022-10-29T03:17:43.580Z,100258.88
2022-10-29T03:20:11.198Z,100257.69
2022-10-29T03:22:38.851Z,100256.66
2022-10-29T03:25:10.102Z,100257.47
2022-10-29T03:27:55.013Z,100246.19
2022-10-29T03:30:26.188Z,100256.66
2022-10-29T03:33:08.760Z,100245.06
2022-10-29T03:35:36.828Z,100244.88
2022-10-29T03:38:04.513Z,100242.44
2022-10-29T03:40:32.168Z,100243.19
2022-10-29T03:43:15.717Z,100234.94
2022-10-29T03:45:56.436Z,100232.31
2022-10-29T03:48:27.272Z,100226.06
2022-10-29T03:50:58.287Z,100225.22
2022-10-29T03:53:26.511Z,100224.38
2022-10-29T03:55:54.874Z,100217.66
2022-10-29T03:58:22.918Z,100213.25
2022-10-29T04:00:54.603Z,100212.34
2022-10-29T04:03:22.666Z,100211.47
2022-10-29T04:05:54.617Z,100207.72
2022-10-29T04:08:22.868Z,100205.84
2022-10-29T04:10:53.756Z,100206.72
2022-10-29T04:13:24.550Z,100204.09
2022-10-29T04:15:55.822Z,100203.16
2022-10-29T04:18:36.698Z,100201.28
2022-10-29T04:29:43.442Z,100196.69
2022-10-29T04:32:11.437Z,100199.41
2022-10-29T04:34:42.339Z,100196.87
2022-10-29T04:37:22.395Z,100199.63
2022-10-29T04:39:50.389Z,100203.91
2022-10-29T04:42:18.002Z,100194.38
2022-10-29T04:44:45.615Z,100198.38
2022-10-29T04:47:13.601Z,100194.91
2022-10-29T04:52:38.870Z,100184.34
2022-10-29T04:55:06.598Z,100179.13
2022-10-29T04:57:34.597Z,100168.44
2022-10-29T05:00:18.881Z,100169.28
2022-10-29T05:03:02.740Z,100164.91
2022-10-29T05:05:42.472Z,100157.78
2022-10-29T05:08:11.385Z,100156.72
2022-10-29T05:10:39.695Z,100150.66
2022-10-29T05:13:21.966Z,100150.56
2022-10-29T05:15:53.371Z,100145.66
2022-10-29T05:18:21.401Z,100139.09
2022-10-29T05:20:55.673Z,100144.84
2022-10-29T05:23:29.297Z,100139.50
2022-10-29T05:25:56.846Z,100129.59
2022-10-29T05:28:25.050Z,100139.19
2022-10-29T05:30:53.271Z,100125.81
2022-10-29T05:33:22.403Z,100127.72
2022-10-29T05:36:02.845Z,100127.59
2022-10-29T05:38:30.746Z,100129.38
2022-10-29T05:40:59.230Z,100127.72
2022-10-29T05:43:26.708Z,100132.13
2022-10-29T05:45:54.372Z,100131.59
2022-10-29T05:48:22.249Z,100130.66
2022-10-29T05:50:49.695Z,100125.84
2022-10-29T05:53:29.252Z,100134.75
2022-10-29T05:55:58.687Z,100127.97
2022-10-29T05:58:26.263Z,100131.09
2022-10-29T06:00:53.745Z,100119.97
2022-10-29T06:03:22.501Z,100121.84
2022-10-29T06:05:50.626Z,100123.97
2022-10-29T06:08:18.738Z,100119.88
2022-10-29T06:10:46.681Z,100111.72
2022-10-29T06:13:27.974Z,100117.06
2022-10-29T06:16:02.007Z,100110.78
2022-10-29T06:18:42.017Z,100113.31
2022-10-29T06:21:09.945Z,100113.19
2022-10-29T06:26:23.060Z,100106.81
2022-10-29T06:28:50.555Z,100101.56
2022-10-29T06:31:18.155Z,100100.31
2022-10-29T06:33:46.050Z,100100.22
2022-10-29T06:36:13.637Z,100091.19
2022-10-29T06:38:41.050Z,100088.34
2022-10-29T06:41:10.045Z,100088.56
2022-10-29T06:43:37.621Z,100082.69
2022-10-29T06:46:06.126Z,100089.81
2022-10-29T06:48:34.079Z,100085.28
2022-10-29T06:51:01.636Z,100080.38
2022-10-29T06:53:29.247Z,100079.12
2022-10-29T06:55:58.925Z,100077.63
2022-10-29T06:58:38.515Z,100071.56
2022-10-29T07:01:06.643Z,100069.88
2022-10-29T07:03:34.302Z,100064.84
2022-10-29T07:06:01.932Z,100063.78
2022-10-29T07:08:30.865Z,100067.47
2022-10-29T07:10:58.415Z,100063.87
2022-10-29T07:13:26.110Z,100057.91
2022-10-29T07:15:54.029Z,100055.41
2022-10-29T07:18:21.759Z,100049.31
2022-10-29T07:20:49.235Z,100038.62
2022-10-29T07:23:17.171Z,100035.78
2022-10-29T07:25:44.931Z,100038.19
2022-10-29T07:28:28.824Z,100025.38
2022-10-29T07:30:59.213Z,100016.63
2022-10-29T07:33:27.983Z,100023.81
2022-10-29T07:35:56.939Z,100016.47
2022-10-29T07:38:24.971Z,100014.97
2022-10-29T07:43:38.102Z,100008.66
2022-10-29T07:46:17.605Z,100010.75
2022-10-29T07:48:45.691Z,100004.91
2022-10-29T07:51:13.301Z,100000.00
2022-10-29T07:53:40.960Z,100002.22
2022-10-29T07:56:08.902Z,99998.12
2022-10-29T07:58:48.458Z,100001.62
2022-10-29T08:01:28.943Z,99998.00
2022-10-29T08:03:59.845Z,99990.31
2022-10-29T08:06:27.424Z,99991.78
2022-10-29T08:08:59.881Z,99989.06
2022-10-29T08:11:28.795Z,99986.44
2022-10-29T08:13:56.287Z,99982.84
2022-10-29T08:16:23.859Z,99982.25
2022-10-29T08:18:51.871Z,99972.34
2022-10-29T08:21:19.413Z,99973.81
2022-10-29T08:23:50.243Z,99968.25
2022-10-29T08:26:19.720Z,99972.03
2022-10-29T08:28:59.056Z,99965.50
2022-10-29T08:31:27.200Z,99955.63
2022-10-29T08:33:54.859Z,99960.66
2022-10-29T08:36:22.525Z,99959.03
2022-10-29T08:38:50.576Z,99952.50
2022-10-29T08:41:34.015Z,99948.19
2022-10-29T08:44:19.804Z,99943.69
2022-10-29T08:46:47.388Z,99934.34
2022-10-29T08:49:40.905Z,99939.94
2022-10-29T08:52:36.648Z,99930.47
2022-10-29T08:55:13.755Z,99926.94
2022-10-29T08:57:46.284Z,99919.69
2022-10-29T09:00:25.781Z,99916.87
2022-10-29T09:02:58.326Z,99903.28
2022-10-29T09:05:54.237Z,99903.41
2022-10-29T09:08:24.706Z,99897.91
2022-10-29T09:11:06.625Z,99892.31
2022-10-29T09:13:48.732Z,99885.97
2022-10-29T09:16:21.825Z,99878.69
2022-10-29T09:18:49.486Z,99872.59
2022-10-29T09:21:38.711Z,99873.19
2022-10-29T09:24:09.028Z,99865.03
2022-10-29T09:26:58.016Z,99861.44
2022-10-29T09:29:25.615Z,99859.44
2022-10-29T09:32:20.257Z,99855.22
2022-10-29T09:35:01.911Z,99854.66
2022-10-29T09:37:49.544Z,99856.03
2022-10-29T09:40:40.650Z,99852.06
2022-10-29T09:46:31.359Z,99848.72
2022-10-29T09:51:58.550Z,99842.09
2022-10-29T09:54:29.162Z,99831.75
2022-10-29T09:57:09.937Z,99825.56
2022-10-29T09:59:42.537Z,99823.78
2022-10-29T10:02:19.467Z,99825.47
2022-10-29T10:05:01.555Z,99811.88
2022-10-29T10:10:22.820Z,99801.59
2022-10-29T10:13:02.912Z,99800.31
2022-10-29T10:15:45.602Z,99793.47
2022-10-29T10:18:26.645Z,99792.97
2022-10-29T10:21:06.526Z,99789.53
2022-10-29T10:23:45.153Z,99774.03
2022-10-29T10:26:31.706Z,99773.78
2022-10-29T10:29:18.980Z,99770.09
2022-10-29T10:32:13.056Z,99766.75
2022-10-29T10:34:40.739Z,99760.31
2022-10-29T10:37:23.226Z,99756.50
2022-10-29T10:39:55.792Z,99760.31
2022-10-29T10:45:15.914Z,99752.44
2022-10-29T10:47:48.907Z,99746.25
2022-10-29T10:50:25.876Z,99739.22
2022-10-29T10:52:58.866Z,99732.78
2022-10-29T10:55:30.164Z,99731.91
2022-10-29T10:58:04.338Z,99729.28
2022-10-29T11:00:36.351Z,99720.59
2022-10-29T11:03:20.460Z,99718.78
2022-10-29T11:05:57.526Z,99722.38
2022-10-29T11:08:49.613Z,99715.59
2022-10-29T11:11:23.256Z,99713.34
2022-10-29T11:13:52.193Z,99708.81
2022-10-29T11:22:26.206Z,99696.97
2022-10-29T11:25:03.418Z,99686.47
2022-10-29T11:27:34.099Z,99688.03
2022-10-29T11:30:04.313Z,99682.78
2022-10-29T11:35:45.135Z,99679.94
2022-10-29T11:38:17.178Z,99674.69
2022-10-29T11:41:08.130Z,99669.44
2022-10-29T11:43:47.448Z,99671.25
2022-10-29T11:46:27.590Z,99671.94
2022-10-29T11:49:13.656Z,99664.06
2022-10-29T11:51:48.125Z,99660.03
2022-10-29T11:54:15.584Z,99659.16
2022-10-29T11:56:46.273Z,99650.59
2022-10-29T11:59:13.975Z,99649.66
2022-10-29T12:01:49.793Z,99646.19
2022-10-29T12:04:47.393Z,99638.31
2022-10-29T12:07:46.804Z,99639.88
2022-10-29T12:10:28.223Z,99631.03
2022-10-29T12:13:15.989Z,99623.88
2022-10-29T12:15:46.596Z,99621.38
2022-10-29T12:18:17.325Z,99617.56
2022-10-29T12:20:54.500Z,99617.19
2022-10-29T12:23:28.168Z,99615.38
2022-10-29T12:25:59.196Z,99613.84
2022-10-29T12:28:46.938Z,99606.81
2022-10-29T12:31:21.040Z,99605.16
2022-10-29T12:34:00.521Z,99599.03
2022-10-29T12:36:41.413Z,99601.66
2022-10-29T12:39:16.276Z,99594.88
2022-10-29T12:41:46.826Z,99598.47
2022-10-29T12:44:23.298Z,99594.06
2022-10-29T12:47:09.129Z,99588.81
2022-10-29T12:49:36.574Z,99580.22
2022-10-29T12:52:14.602Z,99582.25
2022-10-29T12:54:50.869Z,99575.47
2022-10-29T12:57:31.066Z,99580.72
2022-10-29T13:00:18.472Z,99569.25
2022-10-29T13:02:46.576Z,99575.34
2022-10-29T13:05:15.211Z,99565.94
2022-10-29T13:07:46.057Z,99563.81
2022-10-29T13:10:23.300Z,99562.97
2022-10-29T13:15:46.453Z,99548.06
2022-10-29T13:18:29.319Z,99538.53
2022-10-29T13:20:57.269Z,99540.66
2022-10-29T13:23:24.722Z,99543.66
2022-10-29T13:25:52.755Z,99534.47
2022-10-29T13:28:20.624Z,99538.06
2022-10-29T13:30:51.966Z,99533.78
2022-10-29T13:33:29.330Z,99522.34
2022-10-29T13:39:09.180Z,99519.00
2022-10-29T13:41:52.722Z,99514.69
2022-10-29T13:44:24.635Z,99514.59
2022-10-29T13:47:00.767Z,99504.91
2022-10-29T13:49:45.405Z,99499.66
2022-10-29T13:52:20.014Z,99492.78
2022-10-29T13:54:47.856Z,99506.84
2022-10-29T13:57:24.168Z,99497.44
2022-10-29T14:00:09.991Z,99496.81
2022-10-29T14:02:39.729Z,99488.72
2022-10-29T14:05:19.604Z,99491.59
2022-10-29T14:07:59.746Z,99480.00
2022-10-29T14:10:33.294Z,99480.16
2022-10-29T14:13:06.177Z,99471.81
2022-10-29T14:15:35.013Z,99469.91
2022-10-29T14:18:21.404Z,99465.63
2022-10-29T14:21:11.350Z,99455.38
2022-10-29T14:23:41.267Z,99457.28
2022-10-29T14:26:15.835Z,99461.59
2022-10-29T14:28:43.789Z,99461.59
2022-10-29T14:31:16.012Z,99454.78
2022-10-29T14:33:52.824Z,99452.28
2022-10-29T14:36:23.367Z,99447.16
2022-10-29T14:39:12.525Z,99443.72
2022-10-29T14:41:40.312Z,99435.97
2022-10-29T14:44:08.151Z,99435.97
2022-10-29T14:46:36.529Z,99429.03
2022-10-29T14:49:10.432Z,99431.66
2022-10-29T14:51:48.523Z,99426.56
2022-10-29T14:54:19.606Z,99427.28
2022-10-29T14:57:01.594Z,99418.56
2022-10-29T14:59:43.697Z,99412.25
2022-10-29T15:02:37.667Z,99409.62
2022-10-29T15:05:28.019Z,99408.78
2022-10-29T15:08:07.439Z,99402.97
2022-10-29T15:10:45.980Z,99398.44
2022-10-29T15:13:34.499Z,99391.50
2022-10-29T15:16:08.097Z,99385.56
2022-10-29T15:18:38.276Z,99386.28
2022-10-29T15:21:06.233Z,99372.22
2022-10-29T15:23:41.995Z,99372.22
2022-10-29T15:26:14.707Z,99368.50
2022-10-29T15:28:58.841Z,99373.88
2022-10-29T15:34:28.017Z,99361.13
2022-10-29T15:37:00.394Z,99358.63
2022-10-29T15:42:21.262Z,99349.12
2022-10-29T15:45:07.413Z,99345.19
2022-10-29T15:47:48.398Z,99345.31
2022-10-29T15:50:48.342Z,99344.63
2022-10-29T15:53:16.817Z,99342.81
2022-10-29T15:55:44.423Z,99334.25
2022-10-29T15:58:13.704Z,99336.03
2022-10-29T16:00:41.863Z,99322.81
2022-10-29T16:03:25.803Z,99326.53
2022-10-29T16:06:04.259Z,99323.66
2022-10-29T16:08:35.083Z,99329.16
2022-10-29T16:11:05.604Z,99321.03
2022-10-29T16:13:33.797Z,99319.59
2022-10-29T16:16:01.364Z,99300.56
2022-10-29T16:18:31.998Z,99300.44
2022-10-29T16:21:01.128Z,99302.94
2022-10-29T16:23:28.643Z,99296.03
2022-10-29T16:25:56.143Z,99287.94
2022-10-29T16:31:27.429Z,99275.06
2022-10-29T16:33:57.563Z,99280.19
2022-10-29T16:36:37.491Z,99268.00
2022-10-29T16:39:05.497Z,99270.63
2022-10-29T16:41:33.996Z,99268.59
2022-10-29T16:44:01.667Z,99263.88
2022-10-29T16:46:41.480Z,99259.91
2022-10-29T16:49:08.991Z,99256.59
2022-10-29T16:51:48.955Z,99254.19
2022-10-29T16:54:16.576Z,99254.09
2022-10-29T16:56:44.604Z,99245.28
2022-10-29T16:59:12.251Z,99238.25
2022-10-29T17:01:39.752Z,99243.47
2022-10-29T17:04:09.599Z,99231.72
2022-10-29T17:06:49.520Z,99225.75
2022-10-29T17:09:25.262Z,99223.03
2022-10-29T17:11:53.481Z,99217.50
2022-10-29T17:14:23.466Z,99207.75
2022-10-29T17:16:51.083Z,99221.41
2022-10-29T17:19:30.538Z,99207.50
2022-10-29T17:21:59.131Z,99200.03
2022-10-29T17:24:42.474Z,99196.81
2022-10-29T17:27:11.354Z,99194.06
2022-10-29T17:29:39.294Z,99185.00
2022-10-29T17:32:07.706Z,99177.25
2022-10-29T17:34:36.182Z,99169.28
2022-10-29T17:39:49.502Z,99167.00
2022-10-29T17:42:29.711Z,99171.91
2022-10-29T17:44:57.722Z,99160.00
2022-10-29T17:47:25.274Z,99149.38
2022-10-29T17:49:52.829Z,99149.53
2022-10-29T17:52:21.004Z,99146.22
2022-10-29T17:54:48.725Z,99137.25
2022-10-29T17:57:16.350Z,99139.47
2022-10-29T17:59:47.017Z,99137.56
2022-10-29T18:02:14.650Z,99130.38
2022-10-29T18:04:46.111Z,99119.91
2022-10-29T18:10:02.027Z,99111.09
2022-10-29T18:12:30.876Z,99104.88
2022-10-29T18:14:58.811Z,99107.50
2022-10-29T18:17:26.430Z,99101.44
2022-10-29T18:19:54.126Z,99098.81
2022-10-29T18:22:34.060Z,99094.41
2022-10-29T18:25:01.822Z,99092.59
2022-10-29T18:27:30.832Z,99083.22
2022-10-29T18:29:58.357Z,99086.53
2022-10-29T18:32:25.885Z,99071.78
2022-10-29T18:34:53.875Z,99072.47
2022-10-29T18:37:21.328Z,99067.38
2022-10-29T18:39:49.713Z,99063.91
2022-10-29T18:42:17.845Z,99055.09
2022-10-29T18:44:45.462Z,99052.47
2022-10-29T18:47:13.197Z,99043.66
2022-10-29T18:49:43.640Z,99044.34
2022-10-29T18:52:11.383Z,99035.50
2022-10-29T18:54:51.344Z,99030.53
2022-10-29T18:57:31.706Z,99032.31
2022-10-29T18:59:59.536Z,99029.16
2022-10-29T19:02:39.713Z,99026.78
2022-10-29T19:05:07.522Z,99015.06
2022-10-29T19:07:35.540Z,99017.81
2022-10-29T19:10:03.626Z,99018.50
2022-10-29T19:15:16.727Z,99008.03
2022-10-29T19:17:44.269Z,99003.88
2022-10-29T19:20:24.024Z,98993.00
2022-10-29T19:22:51.983Z,98995.50
2022-10-29T19:25:19.509Z,98993.84
2022-10-29T19:27:47.018Z,98992.59
2022-10-29T19:30:15.033Z,98981.69
2022-10-29T19:32:42.593Z,98975.62
2022-10-29T19:35:10.135Z,98973.81
2022-10-29T19:37:39.307Z,98970.91
2022-10-29T19:40:07.702Z,98975.75
2022-10-29T19:42:35.192Z,98961.53
2022-10-29T19:45:03.428Z,98963.63
2022-10-29T19:47:31.197Z,98957.41
2022-10-29T19:49:58.895Z,98960.16
2022-10-29T19:52:26.768Z,98956.31
2022-10-29T19:55:06.347Z,98953.84
2022-10-29T19:57:34.330Z,98952.97
2022-10-29T20:00:01.860Z,98945.81
2022-10-29T20:02:32.407Z,98948.31
2022-10-29T20:05:00.520Z,98941.44
2022-10-29T20:07:28.038Z,98939.88
2022-10-29T20:10:07.811Z,98931.88
2022-10-29T20:12:47.895Z,98928.31
2022-10-29T20:15:15.450Z,98925.94
2022-10-29T20:17:55.686Z,98921.81
2022-10-29T20:20:23.895Z,98912.03
2022-10-29T20:23:04.795Z,98921.81
2022-10-29T20:25:32.379Z,98913.81
2022-10-29T20:28:02.077Z,98906.66
2022-10-29T20:30:47.977Z,98911.47
2022-10-29T20:36:12.976Z,98898.22
2022-10-29T20:38:40.996Z,98894.09
2022-10-29T20:41:08.575Z,98887.06
2022-10-29T20:43:36.074Z,98877.12
2022-10-29T20:46:04.009Z,98872.59
2022-10-29T20:48:31.657Z,98870.91
2022-10-29T20:50:59.186Z,98866.09
2022-10-29T20:53:27.077Z,98863.34
2022-10-29T20:55:54.758Z,98857.13
2022-10-29T20:58:22.845Z,98849.53
2022-10-29T21:00:53.876Z,98844.56
2022-10-29T21:03:23.908Z,98836.97
2022-10-29T21:06:04.214Z,98834.91
2022-10-29T21:08:32.724Z,98828.03
2022-10-29T21:11:10.489Z,98824.44
2022-10-29T21:13:38.382Z,98823.59
2022-10-29T21:16:07.800Z,98810.63
2022-10-29T21:18:41.590Z,98807.06
2022-10-29T21:23:55.157Z,98789.66
2022-10-29T21:26:24.010Z,98786.09
2022-10-29T21:28:52.398Z,98782.63
2022-10-29T21:31:20.651Z,98776.56
2022-10-29T21:34:03.575Z,98770.62
2022-10-29T21:36:31.193Z,98769.13
2022-10-29T21:38:59.127Z,98765.94
2022-10-29T21:41:26.663Z,98767.63
2022-10-29T21:43:54.268Z,98759.06
2022-10-29T21:46:22.186Z,98757.25
2022-10-29T21:49:01.687Z,98746.09
2022-10-29T21:51:41.863Z,98739.19
2022-10-29T21:54:09.460Z,98739.19
2022-10-29T21:56:37.395Z,98729.56
2022-10-29T21:59:04.899Z,98724.31
2022-10-29T22:01:32.572Z,98719.06
2022-10-29T22:04:00.907Z,98715.47
2022-10-29T22:06:28.461Z,98719.06
2022-10-29T22:09:09.447Z,98721.53
2022-10-29T22:11:37.300Z,98709.97
2022-10-29T22:14:05.009Z,98708.28
2022-10-29T22:16:32.719Z,98714.34
2022-10-29T22:19:03.223Z,98708.97
2022-10-29T22:21:32.431Z,98704.44
2022-10-29T22:24:00.016Z,98699.88
2022-10-29T22:26:29.306Z,98693.00
2022-10-29T22:28:56.940Z,98691.19
2022-10-29T22:31:24.739Z,98681.53
2022-10-29T22:33:52.773Z,98676.97
2022-10-29T22:36:21.640Z,98665.25
2022-10-29T22:38:55.894Z,98672.41
2022-10-29T22:41:27.347Z,98670.78
2022-10-29T22:43:55.463Z,98660.00
2022-10-29T22:46:23.003Z,98651.44
2022-10-29T22:48:50.856Z,98647.56
2022-10-29T22:51:19.758Z,98640.69
2022-10-29T22:53:47.654Z,98641.53
2022-10-29T22:56:25.739Z,98633.78
2022-10-29T22:58:53.348Z,98636.16
2022-10-29T23:01:43.977Z,98628.28
2022-10-29T23:04:12.860Z,98625.25
2022-10-29T23:06:40.710Z,98614.19
2022-10-29T23:09:08.318Z,98602.88
2022-10-29T23:11:39.258Z,98604.53
2022-10-29T23:14:07.312Z,98596.81
2022-10-29T23:16:35.767Z,98593.53
2022-10-29T23:19:04.771Z,98590.91
2022-10-29T23:21:33.112Z,98584.00
2022-10-29T23:24:00.931Z,98588.12
2022-10-29T23:26:32.245Z,98576.81
2022-10-29T23:29:02.235Z,98584.53
2022-10-29T23:31:29.945Z,98585.34
2022-10-29T23:33:57.987Z,98590.59
2022-10-29T23:36:26.975Z,98572.56
2022-10-29T23:39:01.409Z,98579.44
2022-10-29T23:41:31.707Z,98568.69
2022-10-29T23:43:59.276Z,98557.06
2022-10-29T23:46:26.811Z,98549.88
2022-10-29T23:49:06.712Z,98542.56
2022-10-29T23:51:46.654Z,98543.75
2022-10-29T23:54:14.677Z,98540.31
2022-10-29T23:56:42.126Z,98540.91
2022-10-29T23:59:09.619Z,98535.53
